sensor_id;sensor_type;location;lat;lon;timestamp;pressure;altitude;pressure_sealevel;temperature;humidity
40592;BME280;26301;42.832;23.918;2023-01-28T00:03:40;92496.25;;;-1.41;97.37
40592;BME280;26301;42.832;23.918;2023-01-28T00:06:16;92477.81;;;-1.49;97.52
40592;BME280;26301;42.832;23.918;2023-01-28T00:08:43;92491.53;;;-1.44;97.79
40592;BME280;26301;42.832;23.918;2023-01-28T00:11:11;92489.72;;;-1.50;97.63
40592;BME280;26301;42.832;23.918;2023-01-28T00:13:37;92499.34;;;-1.39;97.23
40592;BME280;26301;42.832;23.918;2023-01-28T00:16:05;92506.69;;;-1.29;97.23
40592;BME280;26301;42.832;23.918;2023-01-28T00:18:32;92505.72;;;-1.28;97.04
40592;BME280;26301;42.832;23.918;2023-01-28T00:21:07;92509.72;;;-1.19;95.72
40592;BME280;26301;42.832;23.918;2023-01-28T00:23:35;92518.03;;;-1.25;96.14
40592;BME280;26301;42.832;23.918;2023-01-28T00:26:04;92495.22;;;-1.25;95.51
40592;BME280;26301;42.832;23.918;2023-01-28T00:28:30;92509.91;;;-1.20;95.43
40592;BME280;26301;42.832;23.918;2023-01-28T00:30:56;92513.16;;;-1.26;95.78
40592;BME280;26301;42.832;23.918;2023-01-28T00:33:22;92505.59;;;-1.41;96.22
40592;BME280;26301;42.832;23.918;2023-01-28T00:35:57;92516.16;;;-1.38;96.32
40592;BME280;26301;42.832;23.918;2023-01-28T00:38:23;92515.38;;;-1.38;97.13
40592;BME280;26301;42.832;23.918;2023-01-28T00:40:48;92491.81;;;-1.53;97.24
40592;BME280;26301;42.832;23.918;2023-01-28T00:43:14;92487.59;;;-1.46;96.42
40592;BME280;26301;42.832;23.918;2023-01-28T00:45:39;92490.13;;;-1.46;96.79
40592;BME280;26301;42.832;23.918;2023-01-28T00:48:14;92485.22;;;-1.48;96.87
40592;BME280;26301;42.832;23.918;2023-01-28T00:50:40;92480.97;;;-1.47;96.51
40592;BME280;26301;42.832;23.918;2023-01-28T00:53:05;92521.72;;;-1.27;96.59
40592;BME280;26301;42.832;23.918;2023-01-28T00:55:33;92506.44;;;-1.34;96.70
40592;BME280;26301;42.832;23.918;2023-01-28T00:57:59;92514.47;;;-1.30;96.56
40592;BME280;26301;42.832;23.918;2023-01-28T01:00:24;92514.53;;;-1.24;96.31
40592;BME280;26301;42.832;23.918;2023-01-28T01:02:51;92508.88;;;-1.26;95.81
40592;BME280;26301;42.832;23.918;2023-01-28T01:05:17;92481.47;;;-1.37;95.02
40592;BME280;26301;42.832;23.918;2023-01-28T01:07:43;92505.38;;;-1.25;94.84
40592;BME280;26301;42.832;23.918;2023-01-28T01:10:15;92529.03;;;-1.18;94.97
40592;BME280;26301;42.832;23.918;2023-01-28T01:12:41;92519.84;;;-1.19;95.23
40592;BME280;26301;42.832;23.918;2023-01-28T01:15:08;92524.75;;;-1.17;95.76
40592;BME280;26301;42.832;23.918;2023-01-28T01:17:38;92524.31;;;-1.21;95.78
40592;BME280;26301;42.832;23.918;2023-01-28T01:20:05;92506.78;;;-1.37;95.70
40592;BME280;26301;42.832;23.918;2023-01-28T01:22:35;92527.19;;;-1.24;96.13
40592;BME280;26301;42.832;23.918;2023-01-28T01:25:02;92534.22;;;-1.26;96.40
40592;BME280;26301;42.832;23.918;2023-01-28T01:27:29;92509.84;;;-1.42;96.25
40592;BME280;26301;42.832;23.918;2023-01-28T01:29:55;92522.84;;;-1.30;96.62
40592;BME280;26301;42.832;23.918;2023-01-28T01:32:20;92505.84;;;-1.51;96.79
40592;BME280;26301;42.832;23.918;2023-01-28T01:34:46;92518.41;;;-1.43;97.08
40592;BME280;26301;42.832;23.918;2023-01-28T01:37:15;92514.31;;;-1.44;97.20
40592;BME280;26301;42.832;23.918;2023-01-28T01:39:41;92537.69;;;-1.27;97.01
40592;BME280;26301;42.832;23.918;2023-01-28T01:42:11;92535.63;;;-1.23;96.95
40592;BME280;26301;42.832;23.918;2023-01-28T01:47:32;92459.53;;;-1.81;96.44
40592;BME280;26301;42.832;23.918;2023-01-28T01:50:15;92547.31;;;-1.22;96.76
40592;BME280;26301;42.832;23.918;2023-01-28T01:52:42;92541.25;;;-1.21;96.59
40592;BME280;26301;42.832;23.918;2023-01-28T01:55:11;92544.34;;;-1.26;96.60
40592;BME280;26301;42.832;23.918;2023-01-28T01:57:38;92545.47;;;-1.28;96.58
40592;BME280;26301;42.832;23.918;2023-01-28T02:00:07;92539.53;;;-1.35;96.81
40592;BME280;26301;42.832;23.918;2023-01-28T02:02:45;92548.03;;;-1.28;97.28
40592;BME280;26301;42.832;23.918;2023-01-28T02:05:13;92548.63;;;-1.26;96.81
40592;BME280;26301;42.832;23.918;2023-01-28T02:07:40;92545.84;;;-1.31;97.01
40592;BME280;26301;42.832;23.918;2023-01-28T02:10:08;92547.59;;;-1.32;96.79
40592;BME280;26301;42.832;23.918;2023-01-28T02:12:41;92533.25;;;-1.40;96.89
40592;BME280;26301;42.832;23.918;2023-01-28T02:15:17;92548.03;;;-1.28;96.45
40592;BME280;26301;42.832;23.918;2023-01-28T02:17:43;92534.66;;;-1.37;96.94
40592;BME280;26301;42.832;23.918;2023-01-28T02:20:17;92556.25;;;-1.26;96.82
40592;BME280;26301;42.832;23.918;2023-01-28T02:25:42;92550.97;;;-1.25;97.27
40592;BME280;26301;42.832;23.918;2023-01-28T02:33:51;92560.59;;;-1.20;96.81
40592;BME280;26301;42.832;23.918;2023-01-28T02:39:02;92546.63;;;-1.31;96.30
40592;BME280;26301;42.832;23.918;2023-01-28T02:41:37;92555.25;;;-1.25;96.68
40592;BME280;26301;42.832;23.918;2023-01-28T02:44:04;92542.06;;;-1.35;96.37
40592;BME280;26301;42.832;23.918;2023-01-28T02:49:17;92556.91;;;-1.18;96.14
40592;BME280;26301;42.832;23.918;2023-01-28T02:51:54;92555.53;;;-1.20;95.90
40592;BME280;26301;42.832;23.918;2023-01-28T02:54:51;92561.53;;;-1.21;96.05
40592;BME280;26301;42.832;23.918;2023-01-28T02:59:57;92546.69;;;-1.24;95.14
40592;BME280;26301;42.832;23.918;2023-01-28T03:02:29;92566.50;;;-1.13;95.37
40592;BME280;26301;42.832;23.918;2023-01-28T03:05:15;92539.38;;;-1.34;95.52
40592;BME280;26301;42.832;23.918;2023-01-28T03:07:45;92553.25;;;-1.30;95.71
40592;BME280;26301;42.832;23.918;2023-01-28T03:10:16;92552.22;;;-1.35;95.78
40592;BME280;26301;42.832;23.918;2023-01-28T03:12:44;92554.38;;;-1.32;96.30
40592;BME280;26301;42.832;23.918;2023-01-28T03:15:38;92548.13;;;-1.36;96.19
40592;BME280;26301;42.832;23.918;2023-01-28T03:29:47;92564.00;;;-1.28;96.19
40592;BME280;26301;42.832;23.918;2023-01-28T03:32:33;92555.97;;;-1.31;96.10
40592;BME280;26301;42.832;23.918;2023-01-28T03:35:21;92545.94;;;-1.40;96.28
40592;BME280;26301;42.832;23.918;2023-01-28T03:38:08;92540.72;;;-1.53;96.64
40592;BME280;26301;42.832;23.918;2023-01-28T03:43:15;92543.84;;;-1.51;97.09
40592;BME280;26301;42.832;23.918;2023-01-28T03:45:40;92529.34;;;-1.57;96.85
40592;BME280;26301;42.832;23.918;2023-01-28T03:48:06;92567.06;;;-1.32;96.72
40592;BME280;26301;42.832;23.918;2023-01-28T03:50:32;92550.94;;;-1.46;97.15
40592;BME280;26301;42.832;23.918;2023-01-28T03:52:58;92542.91;;;-1.50;97.20
40592;BME280;26301;42.832;23.918;2023-01-28T03:55:37;92575.28;;;-1.30;96.88
40592;BME280;26301;42.832;23.918;2023-01-28T03:58:03;92549.38;;;-1.47;97.29
40592;BME280;26301;42.832;23.918;2023-01-28T04:00:30;92576.25;;;-1.31;97.28
40592;BME280;26301;42.832;23.918;2023-01-28T04:02:57;92582.53;;;-1.27;97.29
40592;BME280;26301;42.832;23.918;2023-01-28T04:05:24;92562.47;;;-1.44;97.31
40592;BME280;26301;42.832;23.918;2023-01-28T04:07:53;92555.22;;;-1.47;97.08
40592;BME280;26301;42.832;23.918;2023-01-28T04:10:20;92565.59;;;-1.42;97.25
40592;BME280;26301;42.832;23.918;2023-01-28T04:12:46;92582.09;;;-1.31;97.32
40592;BME280;26301;42.832;23.918;2023-01-28T04:15:15;92590.13;;;-1.27;97.12
40592;BME280;26301;42.832;23.918;2023-01-28T04:17:47;92587.59;;;-1.27;97.13
40592;BME280;26301;42.832;23.918;2023-01-28T04:20:13;92570.50;;;-1.40;96.93
40592;BME280;26301;42.832;23.918;2023-01-28T04:22:40;92587.59;;;-1.27;97.07
40592;BME280;26301;42.832;23.918;2023-01-28T04:25:06;92591.44;;;-1.31;96.84
40592;BME280;26301;42.832;23.918;2023-01-28T04:27:31;92589.19;;;-1.26;96.82
40592;BME280;26301;42.832;23.918;2023-01-28T04:29:57;92594.69;;;-1.23;96.71
40592;BME280;26301;42.832;23.918;2023-01-28T04:32:23;92598.16;;;-1.24;96.60
40592;BME280;26301;42.832;23.918;2023-01-28T04:34:48;92589.69;;;-1.31;96.55
40592;BME280;26301;42.832;23.918;2023-01-28T04:37:14;92589.69;;;-1.31;96.74
40592;BME280;26301;42.832;23.918;2023-01-28T04:39:39;92604.97;;;-1.24;97.02
40592;BME280;26301;42.832;23.918;2023-01-28T04:42:05;92590.31;;;-1.29;96.52
40592;BME280;26301;42.832;23.918;2023-01-28T04:44:30;92601.66;;;-1.25;96.40
40592;BME280;26301;42.832;23.918;2023-01-28T04:46:56;92610.13;;;-1.18;96.40
40592;BME280;26301;42.832;23.918;2023-01-28T04:49:21;92607.06;;;-1.28;96.48
40592;BME280;26301;42.832;23.918;2023-01-28T04:51:47;92606.31;;;-1.28;97.17
40592;BME280;26301;42.832;23.918;2023-01-28T04:54:13;92610.59;;;-1.29;96.66
40592;BME280;26301;42.832;23.918;2023-01-28T04:56:38;92599.91;;;-1.39;96.64
40592;BME280;26301;42.832;23.918;2023-01-28T04:59:04;92597.72;;;-1.42;96.75
40592;BME280;26301;42.832;23.918;2023-01-28T05:01:29;92615.03;;;-1.31;96.83
40592;BME280;26301;42.832;23.918;2023-01-28T05:03:55;92603.34;;;-1.32;95.92
40592;BME280;26301;42.832;23.918;2023-01-28T05:06:21;92619.03;;;-1.22;96.44
40592;BME280;26301;42.832;23.918;2023-01-28T05:08:46;92604.63;;;-1.36;96.66
40592;BME280;26301;42.832;23.918;2023-01-28T05:11:12;92606.94;;;-1.41;96.75
40592;BME280;26301;42.832;23.918;2023-01-28T05:13:38;92603.59;;;-1.42;96.74
40592;BME280;26301;42.832;23.918;2023-01-28T05:16:04;92607.09;;;-1.43;96.65
40592;BME280;26301;42.832;23.918;2023-01-28T05:18:30;92632.78;;;-1.31;97.13
40592;BME280;26301;42.832;23.918;2023-01-28T05:20:56;92622.13;;;-1.41;96.76
40592;BME280;26301;42.832;23.918;2023-01-28T05:23:21;92631.09;;;-1.39;97.15
40592;BME280;26301;42.832;23.918;2023-01-28T05:25:47;92635.38;;;-1.39;97.01
40592;BME280;26301;42.832;23.918;2023-01-28T05:28:13;92637.56;;;-1.36;97.55
40592;BME280;26301;42.832;23.918;2023-01-28T05:30:38;92641.94;;;-1.30;97.31
40592;BME280;26301;42.832;23.918;2023-01-28T05:33:04;92621.31;;;-1.42;97.10
40592;BME280;26301;42.832;23.918;2023-01-28T05:35:29;92643.19;;;-1.26;96.37
40592;BME280;26301;42.832;23.918;2023-01-28T05:37:55;92621.78;;;-1.38;96.43
40592;BME280;26301;42.832;23.918;2023-01-28T05:40:20;92625.88;;;-1.37;95.70
40592;BME280;26301;42.832;23.918;2023-01-28T05:42:46;92660.56;;;-1.23;95.95
40592;BME280;26301;42.832;23.918;2023-01-28T05:45:12;92660.28;;;-1.28;96.62
40592;BME280;26301;42.832;23.918;2023-01-28T05:47:38;92646.13;;;-1.37;96.81
40592;BME280;26301;42.832;23.918;2023-01-28T05:50:04;92663.09;;;-1.23;96.52
40592;BME280;26301;42.832;23.918;2023-01-28T05:52:30;92658.47;;;-1.34;96.55
40592;BME280;26301;42.832;23.918;2023-01-28T05:54:56;92672.88;;;-1.34;97.37
40592;BME280;26301;42.832;23.918;2023-01-28T05:57:21;92658.38;;;-1.41;97.80
40592;BME280;26301;42.832;23.918;2023-01-28T05:59:47;92666.41;;;-1.37;97.77
40592;BME280;26301;42.832;23.918;2023-01-28T06:02:13;92662.03;;;-1.43;98.02
40592;BME280;26301;42.832;23.918;2023-01-28T06:04:39;92609.72;;;-1.80;98.27
40592;BME280;26301;42.832;23.918;2023-01-28T06:07:05;92649.44;;;-1.51;97.69
40592;BME280;26301;42.832;23.918;2023-01-28T06:09:30;92675.84;;;-1.31;97.61
40592;BME280;26301;42.832;23.918;2023-01-28T06:11:56;92658.19;;;-1.39;96.76
40592;BME280;26301;42.832;23.918;2023-01-28T06:14:22;92656.34;;;-1.45;96.97
40592;BME280;26301;42.832;23.918;2023-01-28T06:16:47;92689.47;;;-1.32;97.06
40592;BME280;26301;42.832;23.918;2023-01-28T06:19:13;92674.44;;;-1.48;97.96
40592;BME280;26301;42.832;23.918;2023-01-28T06:21:39;92667.63;;;-1.48;97.79
40592;BME280;26301;42.832;23.918;2023-01-28T06:24:05;92681.25;;;-1.49;97.95
40592;BME280;26301;42.832;23.918;2023-01-28T06:26:30;92669.38;;;-1.48;97.63
40592;BME280;26301;42.832;23.918;2023-01-28T06:28:56;92686.13;;;-1.32;97.38
40592;BME280;26301;42.832;23.918;2023-01-28T06:31:22;92707.31;;;-1.25;97.39
40592;BME280;26301;42.832;23.918;2023-01-28T06:33:47;92684.66;;;-1.42;97.79
40592;BME280;26301;42.832;23.918;2023-01-28T06:36:13;92682.13;;;-1.42;97.92
40592;BME280;26301;42.832;23.918;2023-01-28T06:38:38;92703.03;;;-1.25;97.47
40592;BME280;26301;42.832;23.918;2023-01-28T06:41:04;92689.56;;;-1.40;97.75
40592;BME280;26301;42.832;23.918;2023-01-28T06:43:29;92694.63;;;-1.40;97.81
40592;BME280;26301;42.832;23.918;2023-01-28T06:45:58;92692.19;;;-1.33;97.11
40592;BME280;26301;42.832;23.918;2023-01-28T06:48:25;92697.59;;;-1.36;97.33
40592;BME280;26301;42.832;23.918;2023-01-28T06:50:52;92706.69;;;-1.27;97.11
40592;BME280;26301;42.832;23.918;2023-01-28T06:53:18;92729.59;;;-1.21;97.67
40592;BME280;26301;42.832;23.918;2023-01-28T06:55:44;92711.47;;;-1.32;97.60
40592;BME280;26301;42.832;23.918;2023-01-28T06:58:09;92732.75;;;-1.19;97.34
40592;BME280;26301;42.832;23.918;2023-01-28T07:00:36;92696.97;;;-1.39;97.92
40592;BME280;26301;42.832;23.918;2023-01-28T07:03:03;92724.69;;;-1.22;97.57
40592;BME280;26301;42.832;23.918;2023-01-28T07:05:29;92742.09;;;-1.19;97.57
40592;BME280;26301;42.832;23.918;2023-01-28T07:07:54;92727.31;;;-1.30;98.14
40592;BME280;26301;42.832;23.918;2023-01-28T07:10:20;92722.66;;;-1.27;98.04
40592;BME280;26301;42.832;23.918;2023-01-28T07:12:45;92744.09;;;-1.15;97.95
40592;BME280;26301;42.832;23.918;2023-01-28T07:15:11;92748.13;;;-1.05;97.56
40592;BME280;26301;42.832;23.918;2023-01-28T07:17:43;92743.16;;;-1.13;97.77
40592;BME280;26301;42.832;23.918;2023-01-28T07:20:11;92746.28;;;-1.11;98.19
40592;BME280;26301;42.832;23.918;2023-01-28T07:22:39;92736.06;;;-1.18;98.29
40592;BME280;26301;42.832;23.918;2023-01-28T07:25:06;92740.53;;;-1.20;98.47
40592;BME280;26301;42.832;23.918;2023-01-28T07:27:32;92756.69;;;-1.06;98.56
40592;BME280;26301;42.832;23.918;2023-01-28T07:29:58;92760.13;;;-0.99;98.39
40592;BME280;26301;42.832;23.918;2023-01-28T07:32:23;92770.06;;;-0.98;98.56
40592;BME280;26301;42.832;23.918;2023-01-28T07:34:52;92759.78;;;-0.96;98.04
40592;BME280;26301;42.832;23.918;2023-01-28T07:37:17;92743.75;;;-1.11;98.28
40592;BME280;26301;42.832;23.918;2023-01-28T07:39:43;92758.19;;;-0.97;98.36
40592;BME280;26301;42.832;23.918;2023-01-28T07:42:09;92772.53;;;-0.89;98.26
40592;BME280;26301;42.832;23.918;2023-01-28T07:44:35;92754.34;;;-0.93;97.32
40592;BME280;26301;42.832;23.918;2023-01-28T07:47:04;92739.66;;;-0.98;96.98
40592;BME280;26301;42.832;23.918;2023-01-28T07:49:30;92748.47;;;-0.94;97.07
40592;BME280;26301;42.832;23.918;2023-01-28T07:51:56;92769.72;;;-0.80;97.30
40592;BME280;26301;42.832;23.918;2023-01-28T07:54:21;92780.50;;;-0.78;97.02
40592;BME280;26301;42.832;23.918;2023-01-28T07:56:47;92766.41;;;-0.80;96.00
40592;BME280;26301;42.832;23.918;2023-01-28T07:59:13;92777.34;;;-0.80;96.31
40592;BME280;26301;42.832;23.918;2023-01-28T08:01:39;92769.13;;;-0.82;96.79
40592;BME280;26301;42.832;23.918;2023-01-28T08:04:04;92765.72;;;-0.74;95.56
40592;BME280;26301;42.832;23.918;2023-01-28T08:06:30;92777.41;;;-0.73;96.39
40592;BME280;26301;42.832;23.918;2023-01-28T08:09:04;92782.25;;;-0.78;95.97
40592;BME280;26301;42.832;23.918;2023-01-28T08:11:31;92778.75;;;-0.77;95.89
40592;BME280;26301;42.832;23.918;2023-01-28T08:13:57;92784.31;;;-0.82;96.66
40592;BME280;26301;42.832;23.918;2023-01-28T08:16:23;92784.94;;;-0.80;96.27
40592;BME280;26301;42.832;23.918;2023-01-28T08:18:49;92787.66;;;-0.81;96.69
40592;BME280;26301;42.832;23.918;2023-01-28T08:21:15;92789.41;;;-0.82;97.03
40592;BME280;26301;42.832;23.918;2023-01-28T08:23:40;92765.63;;;-0.96;96.72
40592;BME280;26301;42.832;23.918;2023-01-28T08:26:06;92792.22;;;-0.77;96.69
40592;BME280;26301;42.832;23.918;2023-01-28T08:28:32;92795.44;;;-0.68;96.60
40592;BME280;26301;42.832;23.918;2023-01-28T08:31:01;92804.81;;;-0.68;96.97
40592;BME280;26301;42.832;23.918;2023-01-28T08:33:27;92789.25;;;-0.65;96.21
40592;BME280;26301;42.832;23.918;2023-01-28T08:35:52;92783.75;;;-0.69;95.99
40592;BME280;26301;42.832;23.918;2023-01-28T08:38:18;92801.13;;;-0.51;96.20
40592;BME280;26301;42.832;23.918;2023-01-28T08:40:45;92803.13;;;-0.47;96.04
40592;BME280;26301;42.832;23.918;2023-01-28T08:43:14;92804.09;;;-0.48;96.63
40592;BME280;26301;42.832;23.918;2023-01-28T08:45:40;92801.81;;;-0.57;97.20
40592;BME280;26301;42.832;23.918;2023-01-28T08:48:08;92798.75;;;-0.53;96.82
40592;BME280;26301;42.832;23.918;2023-01-28T08:50:38;92789.06;;;-0.64;97.16
40592;BME280;26301;42.832;23.918;2023-01-28T08:53:16;92808.56;;;-0.50;96.86
40592;BME280;26301;42.832;23.918;2023-01-28T08:55:42;92770.59;;;-0.73;97.63
40592;BME280;26301;42.832;23.918;2023-01-28T08:58:16;92805.16;;;-0.57;96.27
40592;BME280;26301;42.832;23.918;2023-01-28T09:00:43;92792.63;;;-0.73;97.21
40592;BME280;26301;42.832;23.918;2023-01-28T09:03:09;92805.16;;;-0.57;97.72
40592;BME280;26301;42.832;23.918;2023-01-28T09:05:36;92809.78;;;-0.46;96.73
40592;BME280;26301;42.832;23.918;2023-01-28T09:08:03;92792.72;;;-0.66;97.23
40592;BME280;26301;42.832;23.918;2023-01-28T09:10:30;92790.03;;;-0.65;96.96
40592;BME280;26301;42.832;23.918;2023-01-28T09:12:56;92813.00;;;-0.66;97.55
40592;BME280;26301;42.832;23.918;2023-01-28T09:15:22;92810.31;;;-0.65;97.59
40592;BME280;26301;42.832;23.918;2023-01-28T09:17:48;92816.16;;;-0.64;97.56
40592;BME280;26301;42.832;23.918;2023-01-28T09:20:14;92812.06;;;-0.51;96.18
40592;BME280;26301;42.832;23.918;2023-01-28T09:22:39;92791.50;;;-0.71;95.44
40592;BME280;26301;42.832;23.918;2023-01-28T09:25:05;92814.97;;;-0.54;96.06
40592;BME280;26301;42.832;23.918;2023-01-28T09:27:32;92811.44;;;-0.53;97.26
40592;BME280;26301;42.832;23.918;2023-01-28T09:29:57;92799.13;;;-0.56;97.02
40592;BME280;26301;42.832;23.918;2023-01-28T09:32:26;92808.22;;;-0.47;95.87
40592;BME280;26301;42.832;23.918;2023-01-28T09:34:52;92811.38;;;-0.44;96.26
40592;BME280;26301;42.832;23.918;2023-01-28T09:37:20;92811.28;;;-0.51;96.43
40592;BME280;26301;42.832;23.918;2023-01-28T09:39:46;92815.75;;;-0.53;96.38
40592;BME280;26301;42.832;23.918;2023-01-28T09:45:22;92816.53;;;-0.53;96.89
40592;BME280;26301;42.832;23.918;2023-01-28T09:48:00;92790.53;;;-0.84;98.15
40592;BME280;26301;42.832;23.918;2023-01-28T09:50:41;92817.16;;;-0.65;98.43
40592;BME280;26301;42.832;23.918;2023-01-28T09:53:33;92807.78;;;-0.80;98.10
40592;BME280;26301;42.832;23.918;2023-01-28T09:56:04;92799.31;;;-0.87;98.80
40592;BME280;26301;42.832;23.918;2023-01-28T09:58:31;92808.84;;;-0.74;98.90
40592;BME280;26301;42.832;23.918;2023-01-28T10:03:35;92824.41;;;-0.62;98.84
40592;BME280;26301;42.832;23.918;2023-01-28T10:11:58;92811.28;;;-0.81;98.07
40592;BME280;26301;42.832;23.918;2023-01-28T10:15:23;92819.59;;;-0.72;97.77
40592;BME280;26301;42.832;23.918;2023-01-28T10:17:44;92771.03;;;-1.13;98.49
40592;BME280;26301;42.832;23.918;2023-01-28T10:25:21;92790.44;;;-0.91;97.56
40592;BME280;26301;42.832;23.918;2023-01-28T10:27:50;92820.63;;;-0.66;97.43
40592;BME280;26301;42.832;23.918;2023-01-28T10:30:31;92810.31;;;-0.80;97.77
40592;BME280;26301;42.832;23.918;2023-01-28T10:33:09;92807.06;;;-0.74;97.92
40592;BME280;26301;42.832;23.918;2023-01-28T10:35:40;92804.47;;;-0.65;96.54
40592;BME280;26301;42.832;23.918;2023-01-28T10:38:11;92815.19;;;-0.63;96.94
40592;BME280;26301;42.832;23.918;2023-01-28T10:40:48;92761.50;;;-0.97;96.86
40592;BME280;26301;42.832;23.918;2023-01-28T10:43:20;92823.88;;;-0.43;97.28
40592;BME280;26301;42.832;23.918;2023-01-28T10:48:32;92814.59;;;-0.36;95.50
40592;BME280;26301;42.832;23.918;2023-01-28T10:51:03;92811.16;;;-0.28;94.16
40592;BME280;26301;42.832;23.918;2023-01-28T10:53:43;92824.97;;;-0.16;94.31
40592;BME280;26301;42.832;23.918;2023-01-28T10:56:22;92801.97;;;-0.29;94.14
40592;BME280;26301;42.832;23.918;2023-01-28T10:59:03;92800.31;;;-0.22;93.44
40592;BME280;26301;42.832;23.918;2023-01-28T11:04:05;92823.69;;;-0.12;93.61
40592;BME280;26301;42.832;23.918;2023-01-28T11:06:34;92821.19;;;-0.05;94.23
40592;BME280;26301;42.832;23.918;2023-01-28T11:08:59;92818.38;;;0.05;94.03
40592;BME280;26301;42.832;23.918;2023-01-28T11:11:26;92829.50;;;0.04;95.08
40592;BME280;26301;42.832;23.918;2023-01-28T11:13:53;92821.25;;;0.16;93.92
40592;BME280;26301;42.832;23.918;2023-01-28T11:16:23;92790.03;;;0.01;93.73
40592;BME280;26301;42.832;23.918;2023-01-28T11:19:04;92819.38;;;0.25;93.38
40592;BME280;26301;42.832;23.918;2023-01-28T11:21:31;92804.31;;;0.23;92.54
40592;BME280;26301;42.832;23.918;2023-01-28T11:24:25;92827.25;;;0.30;92.24
40592;BME280;26301;42.832;23.918;2023-01-28T11:26:53;92737.47;;;-0.20;92.52
40592;BME280;26301;42.832;23.918;2023-01-28T11:42:37;92816.22;;;0.44;91.34
40592;BME280;26301;42.832;23.918;2023-01-28T12:07:40;92793.41;;;0.30;90.38
40592;BME280;26301;42.832;23.918;2023-01-28T12:10:21;92821.19;;;0.53;90.40
40592;BME280;26301;42.832;23.918;2023-01-28T12:18:35;92823.06;;;0.44;89.86
40592;BME280;26301;42.832;23.918;2023-01-28T12:21:05;92764.06;;;0.06;89.48
40592;BME280;26301;42.832;23.918;2023-01-28T12:29:14;92818.47;;;0.33;91.34
40592;BME280;26301;42.832;23.918;2023-01-28T12:42:53;92834.81;;;0.45;92.84
40592;BME280;26301;42.832;23.918;2023-01-28T12:45:41;92826.81;;;0.48;93.50
40592;BME280;26301;42.832;23.918;2023-01-28T12:48:42;92827.63;;;0.49;93.15
40592;BME280;26301;42.832;23.918;2023-01-28T12:51:20;92834.28;;;0.50;92.18
40592;BME280;26301;42.832;23.918;2023-01-28T12:53:56;92837.78;;;0.49;91.69
40592;BME280;26301;42.832;23.918;2023-01-28T12:56:29;92801.34;;;0.20;92.87
40592;BME280;26301;42.832;23.918;2023-01-28T12:59:07;92829.50;;;0.40;92.64
40592;BME280;26301;42.832;23.918;2023-01-28T13:07:44;92809.38;;;0.23;92.80
40592;BME280;26301;42.832;23.918;2023-01-28T13:12:47;92835.78;;;0.44;93.51
40592;BME280;26301;42.832;23.918;2023-01-28T13:15:16;92847.66;;;0.58;92.41
40592;BME280;26301;42.832;23.918;2023-01-28T13:18:00;92850.19;;;0.58;91.68
40592;BME280;26301;42.832;23.918;2023-01-28T13:20:50;92856.25;;;0.57;91.83
40592;BME280;26301;42.832;23.918;2023-01-28T13:23:39;92856.94;;;0.51;92.70
40592;BME280;26301;42.832;23.918;2023-01-28T13:28:46;92859.84;;;0.48;91.61
40592;BME280;26301;42.832;23.918;2023-01-28T13:31:21;92770.84;;;-0.02;90.42
40592;BME280;26301;42.832;23.918;2023-01-28T13:34:01;92809.50;;;0.15;90.27
40592;BME280;26301;42.832;23.918;2023-01-28T13:36:53;92845.97;;;0.29;89.50
40592;BME280;26301;42.832;23.918;2023-01-28T13:39:22;92871.72;;;0.41;89.11
40592;BME280;26301;42.832;23.918;2023-01-28T13:41:53;92852.34;;;0.18;89.73
40592;BME280;26301;42.832;23.918;2023-01-28T13:46:51;92866.94;;;0.31;89.64
40592;BME280;26301;42.832;23.918;2023-01-28T13:49:44;92865.91;;;0.11;90.27
40592;BME280;26301;42.832;23.918;2023-01-28T13:52:18;92876.69;;;0.13;90.36
40592;BME280;26301;42.832;23.918;2023-01-28T13:54:54;92858.38;;;0.03;90.80
40592;BME280;26301;42.832;23.918;2023-01-28T14:00:59;92873.28;;;0.06;91.57
40592;BME280;26301;42.832;23.918;2023-01-28T14:03:47;92864.97;;;-0.03;93.13
40592;BME280;26301;42.832;23.918;2023-01-28T14:06:45;92891.03;;;0.20;92.55
40592;BME280;26301;42.832;23.918;2023-01-28T14:18:17;92897.00;;;0.28;93.12
40592;BME280;26301;42.832;23.918;2023-01-28T14:33:26;92823.34;;;-0.24;92.09
40592;BME280;26301;42.832;23.918;2023-01-28T14:35:52;92846.16;;;-0.09;92.03
40592;BME280;26301;42.832;23.918;2023-01-28T14:38:21;92867.41;;;0.05;91.75
40592;BME280;26301;42.832;23.918;2023-01-28T14:40:51;92878.97;;;0.08;92.51
40592;BME280;26301;42.832;23.918;2023-01-28T14:43:22;92853.59;;;-0.07;92.19
40592;BME280;26301;42.832;23.918;2023-01-28T14:46:51;92920.69;;;0.35;92.78
40592;BME280;26301;42.832;23.918;2023-01-28T14:55:33;92921.13;;;0.38;93.10
40592;BME280;26301;42.832;23.918;2023-01-28T14:58:10;92911.50;;;0.34;92.88
40592;BME280;26301;42.832;23.918;2023-01-28T15:00:56;92861.22;;;-0.07;92.88
40592;BME280;26301;42.832;23.918;2023-01-28T15:03:29;92843.66;;;-0.24;93.50
40592;BME280;26301;42.832;23.918;2023-01-28T15:06:11;92868.47;;;-0.04;93.42
40592;BME280;26301;42.832;23.918;2023-01-28T15:08:40;92923.97;;;0.29;93.86
40592;BME280;26301;42.832;23.918;2023-01-28T15:11:08;92926.06;;;0.25;93.52
40592;BME280;26301;42.832;23.918;2023-01-28T15:13:43;92928.41;;;0.27;94.04
40592;BME280;26301;42.832;23.918;2023-01-28T15:16:19;92870.66;;;-0.16;93.79
40592;BME280;26301;42.832;23.918;2023-01-28T15:18:49;92923.34;;;0.27;94.09
40592;BME280;26301;42.832;23.918;2023-01-28T15:21:23;92921.34;;;0.22;93.29
40592;BME280;26301;42.832;23.918;2023-01-28T15:23:59;92937.63;;;0.28;94.19
40592;BME280;26301;42.832;23.918;2023-01-28T15:26:32;92848.63;;;-0.30;94.10
40592;BME280;26301;42.832;23.918;2023-01-28T15:31:55;92869.53;;;-0.28;94.25
40592;BME280;26301;42.832;23.918;2023-01-28T15:34:25;92895.34;;;-0.10;94.38
40592;BME280;26301;42.832;23.918;2023-01-28T15:37:09;92915.50;;;0.07;94.47
40592;BME280;26301;42.832;23.918;2023-01-28T15:39:41;92895.53;;;-0.11;94.02
40592;BME280;26301;42.832;23.918;2023-01-28T15:42:26;92858.88;;;-0.38;94.29
40592;BME280;26301;42.832;23.918;2023-01-28T15:44:57;92920.03;;;-0.04;94.42
40592;BME280;26301;42.832;23.918;2023-01-28T15:47:34;92900.53;;;-0.18;94.32
40592;BME280;26301;42.832;23.918;2023-01-28T15:50:06;92870.44;;;-0.36;94.55
40592;BME280;26301;42.832;23.918;2023-01-28T15:52:42;92901.13;;;-0.16;94.81